Terminal Aerodrome Forecast
Issued by NWS

Home | Current Version | Previous Version | Text Only | Print | Product List | Glossary On
Versions: 1 2 3 4 5 6 7 8 9 10 11 12 13 14 15 16 17 18 19 20 21 22
000
FTUS43 KMKX 191144
TAFENW
TAF
KENW 191144Z 1912/2012 VRB03KT P6SM SCT040 BKN080
     FM191500 09007KT P6SM BKN030
     FM191700 09007KT P6SM BKN035
     FM192000 09007KT P6SM SCT050
     FM200200 11005KT P6SM SCT200
     FM200800 15004KT P6SM SCT150=

USA.gov is the U.S. government's official web portal to all federal, state and local government web resources and services.